^^
Station Historical Data
Daily Summary for March 26, 2017 Units:  Metric    English   Both
« Previous Day
Next Day »
Daily Weekly Monthly Yearly Custom
  High: Low: Average:
Temperature: 23.6 °C 16.8 °C 20.3 °C
Dew Point: 4.8 °C 1.8 °C 2.8 °C
Humidity: 42% 24% 32%
Wind Speed: 11.1km/h 0km/h 0.6km/h
Wind Gust: 16.1km/h - -
Wind- - SE
Pressure: 1014.4 hPa 1012.8 hPa -
Precipitation: 0 mm    
Historical Graphs
 
 
Tabular Data for March 26, 2017
Time Temperature Dew Point Pressure Wind Wind Speed Wind Gust Humidity Rainfall Rate (Hourly) solar Conditions
00:07 23.6 °C 1.8 °C 1013.8 hPa SE 11.1 km/h 16.1 km/h 24% 0 mm 0.0 W/m2
00:22 23.6 °C 1.8 °C 1013.8 hPa SE 7.9 km/h 11.3 km/h 24% 0 mm 0.0 W/m2
00:32 23.6 °C 1.8 °C 1013.8 hPa SE 7.9 km/h 14.5 km/h 24% 0 mm 0.0 W/m2
00:47 22.9 °C 2.4 °C 1013.4 hPa Calm     26% 0 mm 0.0 W/m2
00:53 22.8 °C 2.3 °C 1013.4 hPa Calm     26% 0 mm 0.0 W/m2
00:58 22.6 °C 2.1 °C 1013.8 hPa Calm     26% 0 mm 0.0 W/m2
01:03 22.6 °C 2.1 °C 1013.8 hPa Calm     26% 0 mm 0.0 W/m2
01:13 22.7 °C 2.2 °C 1013.8 hPa Calm     26% 0 mm 0.0 W/m2
01:29 23.1 °C 2 °C 1013.8 hPa Calm     25% 0 mm 0.0 W/m2
01:34 22.9 °C 2.4 °C 1013.8 hPa Calm     26% 0 mm 0.0 W/m2
01:39 22.8 °C 2.3 °C 1013.8 hPa Calm     26% 0 mm 0.0 W/m2
01:44 22.7 °C 2.2 °C 1013.8 hPa Calm     26% 0 mm 0.0 W/m2
01:49 22.4 °C 2.5 °C 1013.8 hPa Calm     27% 0 mm 0.0 W/m2
01:54 22.3 °C 2.4 °C 1013.8 hPa Calm     27% 0 mm 0.0 W/m2
02:00 22.3 °C 2.4 °C 1013.4 hPa Calm     27% 0 mm 0.0 W/m2
02:07 22.3 °C 2.4 °C 1013.4 hPa Calm     27% 0 mm 0.0 W/m2
02:08 22.3 °C 2.4 °C 1013.4 hPa Calm   8 km/h 27% 0 mm 0.0 W/m2
02:21 22.3 °C 2.4 °C 1013.4 hPa Calm     27% 0 mm 0.0 W/m2
02:36 22.2 °C 2.3 °C 1013.4 hPa Calm     27% 0 mm 0.0 W/m2
02:41 22.1 °C 2.2 °C 1013.4 hPa Calm     27% 0 mm 0.0 W/m2
02:46 21.9 °C 2.6 °C 1013.1 hPa Calm     28% 0 mm 0.0 W/m2
02:56 21.6 °C 2.3 °C 1013.1 hPa Calm     28% 0 mm 0.0 W/m2
03:07 21.1 °C 2.4 °C 1013.1 hPa Calm     29% 0 mm 0.0 W/m2
03:12 20.9 °C 2.7 °C 1013.1 hPa Calm     30% 0 mm 0.0 W/m2
03:17 20.7 °C 3 °C 1013.1 hPa Calm     31% 0 mm 0.0 W/m2
03:22 20.4 °C 2.7 °C 1013.1 hPa Calm     31% 0 mm 0.0 W/m2
03:32 20.1 °C 2.9 °C 1013.1 hPa Calm     32% 0 mm 0.0 W/m2
03:47 19.7 °C 3 °C 1012.8 hPa Calm     33% 0 mm 0.0 W/m2
03:53 19.5 °C 2.8 °C 1012.8 hPa Calm     33% 0 mm 0.0 W/m2
03:58 19.4 °C 2.7 °C 1012.8 hPa Calm     33% 0 mm 0.0 W/m2
04:03 19.3 °C 2.6 °C 1012.8 hPa Calm     33% 0 mm 0.0 W/m2
04:08 19.3 °C 2.6 °C 1012.8 hPa Calm     33% 0 mm 0.0 W/m2
04:13 19.3 °C 3 °C 1012.8 hPa Calm     34% 0 mm 0.0 W/m2
04:19 19.3 °C 2.6 °C 1012.8 hPa Calm     33% 0 mm 0.0 W/m2
04:24 19.3 °C 3 °C 1012.8 hPa Calm     34% 0 mm 0.0 W/m2
04:30 19.3 °C 2.6 °C 1012.8 hPa Calm     33% 0 mm 0.0 W/m2
04:35 19.3 °C 2.6 °C 1012.8 hPa Calm     33% 0 mm 0.0 W/m2
04:40 19.4 °C 2.7 °C 1012.8 hPa Calm     33% 0 mm 0.0 W/m2
04:45 19.4 °C 2.7 °C 1012.8 hPa Calm     33% 0 mm 0.0 W/m2
04:50 19.4 °C 2.7 °C 1012.8 hPa Calm     33% 0 mm 0.0 W/m2
04:56 19.4 °C 2.7 °C 1012.8 hPa Calm     33% 0 mm 0.0 W/m2
05:01 19.3 °C 2.6 °C 1012.8 hPa Calm     33% 0 mm 0.0 W/m2
05:06 19.2 °C 2.5 °C 1012.8 hPa Calm     33% 0 mm 0.0 W/m2
05:11 19.2 °C 3 °C 1012.8 hPa Calm     34% 0 mm 0.0 W/m2
05:16 19.1 °C 2.9 °C 1012.8 hPa Calm     34% 0 mm 0.0 W/m2
05:21 19 °C 2.8 °C 1012.8 hPa Calm     34% 0 mm 0.0 W/m2
05:27 19 °C 2.8 °C 1012.8 hPa Calm     34% 0 mm 0.0 W/m2
05:32 18.9 °C 2.7 °C 1012.8 hPa Calm     34% 0 mm 0.0 W/m2
05:37 18.8 °C 3 °C 1012.8 hPa Calm     35% 0 mm 0.0 W/m2
05:42 18.7 °C 3.3 °C 1012.8 hPa Calm     36% 0 mm 0.0 W/m2
05:47 18.3 °C 3.4 °C 1012.8 hPa Calm     37% 0 mm 0.0 W/m2
05:53 18 °C 3.5 °C 1012.8 hPa Calm     38% 0 mm 0.0 W/m2
06:19 17 °C 3.3 °C 1013.4 hPa Calm     40% 0 mm 0.0 W/m2
06:24 17.1 °C 3.4 °C 1013.4 hPa Calm     40% 0 mm 0.0 W/m2
06:29 17.2 °C 3.5 °C 1013.4 hPa Calm     40% 0 mm 0.0 W/m2
06:34 17.2 °C 3.1 °C 1013.4 hPa Calm     39% 0 mm 0.0 W/m2
06:39 17.4 °C 3.3 °C 1013.4 hPa Calm     39% 0 mm 0.0 W/m2
06:48 17.4 °C 3.3 °C 1013.8 hPa Calm     39% 0 mm 0.0 W/m2
07:01 17.4 °C 3.7 °C 1013.8 hPa Calm     40% 0 mm 0.0 W/m2
07:15 16.8 °C 3.8 °C 1013.8 hPa Calm     42% 0 mm 12.0 W/m2
07:27 17 °C 4 °C 1014.1 hPa Calm     42% 0 mm 25.0 W/m2
07:42 17.9 °C 4.5 °C 1014.1 hPa Calm     41% 0 mm 74.0 W/m2
08:06 20.4 °C 4.8 °C 1014.4 hPa Calm     36% 0 mm 204.0 W/m2
08:23 21.1 °C 4.6 °C 1014.4 hPa Calm     34% 0 mm 248.0 W/m2
08:31 22.1 °C 3.7 °C 1014.4 hPa SE 3.2 km/h 8 km/h 30% 0 mm 301.0 W/m2
08:47 22.7 °C 2.7 °C 1014.4 hPa Calm   9.7 km/h 27% 0 mm 355.0 W/m2
08:57 23 °C 3 °C 1014.4 hPa ESE 4.7 km/h 11.3 km/h 27% 0 mm 390.0 W/m2
09:03 23.1 °C 2.5 °C 1014.4 hPa ESE 7.9 km/h 12.9 km/h 26% 0 mm 408.0 W/m2
Canyon Roadhouse, Fishriver Canyon, Namibia
Compliments of Weather Underground - 2 mb